| time (UTC) | temp F | wind direction | speed knots | gust knots | rain 1hr in | rain 24hr in | rain mn in | humidity % | barometer mb |
| 20260504201539 | 73 | 214 | 2.6 | 7.8 | 0.00 | 0.00 | 0.00 | 36 | 1010.4 |
| 20260504201037 | 74 | 116 | 1.7 | 3.5 | 0.00 | 0.00 | 0.00 | 37 | 1010.4 |
| 20260504200533 | 74 | 121 | 2.6 | 5.2 | 0.00 | 0.00 | 0.00 | 37 | 1010.5 |
| 20260504200030 | 73 | 125 | 0.9 | 4.3 | 0.00 | 0.00 | 0.00 | 37 | 1010.3 |
| 20260504195526 | 74 | 205 | 0.0 | 4.3 | 0.00 | 0.00 | 0.00 | 42 | 1010.5 |
| 20260504195023 | 73 | 242 | 0.0 | 6.1 | 0.00 | 0.00 | 0.00 | 39 | 1010.7 |
| 20260504194520 | 74 | 128 | 1.7 | 5.2 | 0.00 | 0.00 | 0.00 | 39 | 1010.7 |
| 20260504194015 | 73 | 131 | 2.6 | 7.0 | 0.00 | 0.00 | 0.00 | 37 | 1010.6 |
| 20260504193512 | 73 | 175 | 1.7 | 5.2 | 0.00 | 0.00 | 0.00 | 36 | 1010.8 |
| 20260504193011 | 71 | 84 | 0.9 | 6.1 | 0.00 | 0.00 | 0.00 | 39 | 1010.9 |
| 20260504192509 | 73 | 78 | 2.6 | 3.5 | 0.00 | 0.00 | 0.00 | 38 | 1010.9 |
| 20260504192007 | 72 | 113 | 2.6 | 9.6 | 0.00 | 0.00 | 0.00 | 40 | 1010.9 |
| 20260504191504 | 74 | 87 | 3.5 | 4.3 | 0.00 | 0.00 | 0.00 | 39 | 1011.0 |
| 20260504191000 | 73 | 257 | 1.7 | 11.3 | 0.00 | 0.00 | 0.00 | 38 | 1011.0 |
| 20260504190455 | 72 | 139 | 2.6 | 7.8 | 0.00 | 0.00 | 0.00 | 36 | 1011.1 |
| 20260504185952 | 71 | 215 | 3.5 | 8.7 | 0.00 | 0.00 | 0.00 | 38 | 1011.1 |
| 20260504185449 | 70 | 156 | 4.3 | 7.8 | 0.00 | 0.00 | 0.00 | 37 | 1011.2 |
| 20260504184945 | 73 | 32 | 2.6 | 4.3 | 0.00 | 0.00 | 0.00 | 37 | 1011.1 |
| 20260504184441 | 73 | 202 | 1.7 | 6.1 | 0.00 | 0.00 | 0.00 | 39 | 1011.2 |
| 20260504183937 | 71 | 167 | 3.5 | 12.2 | 0.00 | 0.00 | 0.00 | 39 | 1011.3 |
| 20260504183434 | 73 | 198 | 5.2 | 7.8 | 0.00 | 0.00 | 0.00 | 37 | 1011.3 |
| 20260504182933 | 73 | 160 | 2.6 | 8.7 | 0.00 | 0.00 | 0.00 | 36 | 1011.4 |
| 20260504182429 | 73 | 167 | 3.5 | 7.8 | 0.00 | 0.00 | 0.00 | 37 | 1011.2 |
| 20260504181926 | 71 | 172 | 0.0 | 8.7 | 0.00 | 0.00 | 0.00 | 38 | 1011.3 |
| 20260504181423 | 72 | 150 | 3.5 | 7.0 | 0.00 | 0.00 | 0.00 | 37 | 1011.4 |
| 20260504180922 | 73 | 192 | 3.5 | 10.4 | 0.00 | 0.00 | 0.00 | 35 | 1011.3 |
| 20260504180421 | 73 | 172 | 1.7 | 7.8 | 0.00 | 0.00 | 0.00 | 40 | 1011.4 |
| 20260504175918 | 73 | 148 | 2.6 | 6.1 | 0.00 | 0.00 | 0.00 | 37 | 1011.3 |
| 20260504175415 | 71 | 178 | 1.7 | 8.7 | 0.00 | 0.00 | 0.00 | 38 | 1011.5 |
| 20260504174913 | 72 | 126 | 3.5 | 7.0 | 0.00 | 0.00 | 0.00 | 41 | 1011.7 |
| 20260504174410 | 71 | 8 | 1.7 | 3.5 | 0.00 | 0.00 | 0.00 | 39 | 1011.6 |
| 20260504173907 | 71 | 201 | 2.6 | 10.4 | 0.00 | 0.00 | 0.00 | 41 | 1011.6 |
| 20260504173403 | 70 | 121 | 2.6 | 7.8 | 0.00 | 0.00 | 0.00 | 42 | 1011.7 |
| 20260504172901 | 71 | 137 | 1.7 | 9.6 | 0.00 | 0.00 | 0.00 | 36 | 1011.8 |
| 20260504172357 | 72 | 202 | 2.6 | 7.0 | 0.00 | 0.00 | 0.00 | 41 | 1012.0 |
| 20260504171853 | 70 | 69 | 2.6 | 6.1 | 0.00 | 0.00 | 0.00 | 42 | 1012.0 |
| 20260504171351 | 69 | 181 | 0.9 | 8.7 | 0.00 | 0.00 | 0.00 | 38 | 1012.0 |
| 20260504170848 | 72 | 133 | 1.7 | 5.2 | 0.00 | 0.00 | 0.00 | 35 | 1012.0 |
| 20260504170344 | 71 | 171 | 1.7 | 4.3 | 0.00 | 0.00 | 0.00 | 44 | 1012.0 |
| 20260504160303 | 69 | 144 | 1.7 | 4.3 | 0.00 | 0.00 | 0.00 | 40 | 1012.8 |
| 20260504150728 | 63 | 147 | 0.9 | 8.7 | 0.00 | 0.00 | 0.00 | 40 | 1013.6 |
| 20260504150225 | 64 | 92 | 3.5 | 4.3 | 0.00 | 0.00 | 0.00 | 44 | 1013.6 |
| 20260504141154 | 58 | 133 | 2.6 | 6.1 | 0.00 | 0.00 | 0.00 | 44 | 1014.1 |
| 20260504140651 | 57 | 201 | 1.7 | 7.8 | 0.00 | 0.00 | 0.00 | 46 | 1014.2 |
| 20260504140146 | 57 | 298 | 1.7 | 4.3 | 0.00 | 0.00 | 0.00 | 47 | 1014.2 |
| 20260504130615 | 52 | 119 | 2.6 | 5.2 | 0.00 | 0.00 | 0.00 | 56 | 1015.1 |
| 20260504130112 | 52 | 129 | 0.9 | 5.2 | 0.00 | 0.00 | 0.00 | 57 | 1015.0 |
| 20260504110503 | 37 | 53 | 1.7 | 2.6 | 0.00 | 0.00 | 0.00 | 93 | 1015.1 |
| 20260504100419 | 35 | 47 | 1.7 | 3.5 | 0.00 | 0.00 | 0.00 | 93 | 1014.9 |
| 20260504081812 | 37 | 49 | 0.9 | 2.6 | 0.00 | 0.00 | 0.00 | 88 | 1015.2 |
| 20260504081309 | 37 | 97 | 0.0 | 1.7 | 0.00 | 0.00 | 0.00 | 88 | 1015.4 |
| 20260504080805 | 38 | 18 | 1.7 | 1.7 | 0.00 | 0.00 | 0.00 | 86 | 1015.2 |
| 20260504080302 | 38 | 40 | 0.0 | 1.7 | 0.00 | 0.00 | 0.00 | 86 | 1015.3 |
| 20260504070229 | 41 | 58 | 0.9 | 2.6 | 0.00 | 0.00 | 0.00 | 81 | 1015.2 |
| 20260504060150 | 42 | 44 | 0.0 | 1.7 | 0.00 | 0.00 | 0.00 | 76 | 1015.0 |
| 20260504050618 | 42 | 55 | 0.0 | 0.9 | 0.00 | 0.00 | 0.00 | 75 | 1014.9 |
| 20260504050115 | 43 | 104 | 0.0 | 0.0 | 0.00 | 0.00 | 0.00 | 74 | 1014.9 |
| 20260504045612 | 43 | 38 | 0.0 | 1.7 | 0.00 | 0.00 | 0.00 | 74 | 1015.0 |
| 20260504045107 | 43 | 39 | 0.0 | 1.7 | 0.00 | 0.00 | 0.00 | 73 | 1014.9 |
| 20260504044605 | 43 | 48 | 0.0 | 1.7 | 0.00 | 0.00 | 0.00 | 72 | 1014.7 |
| 20260504044102 | 43 | 75 | 0.0 | 1.7 | 0.00 | 0.00 | 0.00 | 71 | 1014.9 |
| 20260504043559 | 43 | 39 | 0.0 | 1.7 | 0.00 | 0.00 | 0.00 | 70 | 1014.9 |
| 20260504043055 | 44 | 44 | 0.0 | 0.9 | 0.00 | 0.00 | 0.00 | 71 | 1014.8 |
| 20260504042552 | 44 | 55 | 0.0 | 1.7 | 0.00 | 0.00 | 0.00 | 70 | 1014.7 |
| 20260504042049 | 44 | 63 | 0.0 | 1.7 | 0.00 | 0.00 | 0.00 | 69 | 1014.4 |
| 20260504041545 | 44 | 72 | 0.0 | 1.7 | 0.00 | 0.00 | 0.00 | 71 | 1014.4 |
| 20260504041042 | 44 | 343 | 0.0 | 0.9 | 0.00 | 0.00 | 0.00 | 71 | 1014.7 |
| 20260504040539 | 44 | 60 | 0.0 | 0.9 | 0.00 | 0.00 | 0.00 | 68 | 1014.3 |
| 20260504040035 | 45 | 89 | 0.0 | 1.7 | 0.00 | 0.00 | 0.00 | 68 | 1014.5 |
| 20260504035532 | 45 | 89 | 0.0 | 1.7 | 0.00 | 0.00 | 0.00 | 66 | 1014.4 |
| 20260504035029 | 45 | 119 | 0.0 | 1.7 | 0.00 | 0.00 | 0.00 | 66 | 1014.3 |
| 20260504034527 | 45 | 113 | 0.0 | 2.6 | 0.00 | 0.00 | 0.00 | 67 | 1014.2 |
| 20260504034023 | 44 | 343 | 0.0 | 1.7 | 0.00 | 0.00 | 0.00 | 67 | 1014.2 |
| 20260504033521 | 44 | 75 | 0.0 | 1.7 | 0.00 | 0.00 | 0.00 | 67 | 1014.4 |
| 20260504033019 | 44 | 19 | 0.0 | 1.7 | 0.00 | 0.00 | 0.00 | 68 | 1014.4 |
| 20260504032515 | 44 | 44 | 0.0 | 0.0 | 0.00 | 0.00 | 0.00 | 68 | 1014.3 |
| 20260504032012 | 44 | 23 | 0.0 | 1.7 | 0.00 | 0.00 | 0.00 | 67 | 1014.4 |
| 20260504031509 | 45 | 66 | 0.9 | 1.7 | 0.00 | 0.00 | 0.00 | 68 | 1014.7 |
| 20260504031005 | 45 | 157 | 0.0 | 0.9 | 0.00 | 0.00 | 0.00 | 66 | 1014.5 |
| 20260504030503 | 45 | 153 | 0.9 | 0.9 | 0.00 | 0.00 | 0.00 | 67 | 1014.4 |
| 20260504025958 | 44 | 31 | 0.0 | 1.7 | 0.00 | 0.00 | 0.00 | 67 | 1014.2 |
| 20260504025456 | 44 | 23 | 0.9 | 1.7 | 0.00 | 0.00 | 0.00 | 67 | 1014.2 |
| 20260504024952 | 44 | 15 | 0.0 | 0.9 | 0.00 | 0.00 | 0.00 | 70 | 1014.4 |
| 20260504024449 | 45 | 35 | 0.0 | 1.7 | 0.00 | 0.00 | 0.00 | 67 | 1014.3 |
| 20260504023946 | 45 | 58 | 0.9 | 1.7 | 0.00 | 0.00 | 0.00 | 66 | 1014.3 |
| 20260504023443 | 45 | 10 | 0.0 | 1.7 | 0.00 | 0.00 | 0.00 | 66 | 1014.5 |
| 20260504022938 | 45 | 44 | 0.0 | 0.9 | 0.00 | 0.00 | 0.00 | 68 | 1014.3 |
| 20260504022435 | 45 | 50 | 0.9 | 1.7 | 0.00 | 0.00 | 0.00 | 66 | 1014.3 |
| 20260504021932 | 45 | 344 | 0.9 | 1.7 | 0.00 | 0.00 | 0.00 | 67 | 1014.1 |
| 20260504021429 | 45 | 50 | 0.0 | 1.7 | 0.00 | 0.00 | 0.00 | 67 | 1014.4 |
| 20260504020926 | 45 | 48 | 0.0 | 1.7 | 0.00 | 0.00 | 0.00 | 67 | 1014.3 |
| 20260504020423 | 45 | 49 | 0.0 | 1.7 | 0.00 | 0.00 | 0.00 | 66 | 1014.3 |
| 20260504015920 | 46 | 22 | 0.0 | 1.7 | 0.00 | 0.00 | 0.00 | 64 | 1014.4 |
| 20260504015415 | 46 | 76 | 0.0 | 0.9 | 0.00 | 0.00 | 0.00 | 64 | 1014.3 |
| 20260504014912 | 46 | 50 | 0.0 | 0.9 | 0.00 | 0.00 | 0.00 | 65 | 1014.3 |
| 20260504014408 | 46 | 62 | 0.0 | 1.7 | 0.00 | 0.00 | 0.00 | 62 | 1014.3 |
| 20260504013905 | 46 | 66 | 0.0 | 0.9 | 0.00 | 0.00 | 0.00 | 62 | 1014.4 |
| 20260504013403 | 47 | 50 | 0.0 | 0.9 | 0.00 | 0.00 | 0.00 | 61 | 1014.1 |
| 20260504012859 | 47 | 75 | 0.0 | 0.9 | 0.00 | 0.00 | 0.00 | 60 | 1014.1 |
| 20260504012357 | 48 | 67 | 0.9 | 1.7 | 0.00 | 0.00 | 0.00 | 61 | 1014.0 |
| 20260504011854 | 48 | 0 | 0.0 | 0.9 | 0.00 | 0.00 | 0.00 | 58 | 1014.0 |
| 20260504011351 | 48 | 22 | 0.0 | 1.7 | 0.00 | 0.00 | 0.00 | 58 | 1013.9 |
| 20260504010847 | 48 | 48 | 0.0 | 0.9 | 0.00 | 0.00 | 0.00 | 55 | 1013.8 |
| 20260504010343 | 48 | 11 | 0.0 | 0.9 | 0.00 | 0.00 | 0.00 | 57 | 1013.7 |
| 20260504005839 | 49 | 50 | 0.0 | 0.9 | 0.00 | 0.00 | 0.00 | 58 | 1013.8 |
| 20260504005336 | 49 | 49 | 0.0 | 1.7 | 0.00 | 0.00 | 0.00 | 57 | 1013.7 |
| 20260504004834 | 49 | 50 | 0.0 | 0.9 | 0.00 | 0.00 | 0.00 | 57 | 1013.8 |
| 20260504004331 | 50 | 78 | 0.0 | 1.7 | 0.00 | 0.00 | 0.00 | 56 | 1013.9 |
| 20260504003827 | 50 | 42 | 0.9 | 1.7 | 0.00 | 0.00 | 0.00 | 55 | 1013.5 |
| 20260504003325 | 50 | 48 | 0.0 | 1.7 | 0.00 | 0.00 | 0.00 | 53 | 1013.9 |
| 20260504002821 | 51 | 334 | 0.0 | 1.7 | 0.00 | 0.00 | 0.00 | 50 | 1013.8 |
| 20260504002318 | 51 | 37 | 0.0 | 0.9 | 0.00 | 0.00 | 0.00 | 52 | 1013.6 |
| 20260504001816 | 52 | 52 | 0.0 | 1.7 | 0.00 | 0.00 | 0.00 | 51 | 1013.3 |
| 20260504001313 | 53 | 75 | 0.0 | 0.9 | 0.00 | 0.00 | 0.00 | 47 | 1013.4 |
| 20260504000810 | 53 | 138 | 0.0 | 1.7 | 0.00 | 0.00 | 0.00 | 45 | 1013.5 |
| 20260504000307 | 54 | 95 | 1.7 | 2.6 | 0.00 | 0.00 | 0.00 | 43 | 1013.4 |
| 20260503235804 | 54 | 54 | 0.0 | 1.7 | 0.00 | 0.00 | 0.00 | 43 | 1013.4 |
| 20260503235302 | 55 | 57 | 1.7 | 1.7 | 0.00 | 0.00 | 0.00 | 43 | 1013.3 |
| 20260503234759 | 55 | 76 | 0.0 | 1.7 | 0.00 | 0.00 | 0.00 | 43 | 1013.2 |
| 20260503234257 | 55 | 62 | 0.9 | 2.6 | 0.00 | 0.00 | 0.00 | 40 | 1013.3 |
| 20260503233754 | 55 | 79 | 1.7 | 2.6 | 0.00 | 0.00 | 0.00 | 40 | 1013.1 |
| 20260503233249 | 56 | 68 | 0.9 | 2.6 | 0.00 | 0.00 | 0.00 | 38 | 1013.2 |
| 20260503232747 | 56 | 110 | 0.0 | 4.3 | 0.00 | 0.00 | 0.00 | 40 | 1013.1 |
| 20260503232244 | 56 | 79 | 1.7 | 3.5 | 0.00 | 0.00 | 0.00 | 40 | 1013.3 |
| 20260503231742 | 56 | 126 | 1.7 | 3.5 | 0.00 | 0.00 | 0.00 | 39 | 1013.0 |
| 20260503231239 | 56 | 141 | 0.9 | 3.5 | 0.00 | 0.00 | 0.00 | 39 | 1013.1 |
| 20260503230734 | 56 | 192 | 1.7 | 4.3 | 0.00 | 0.00 | 0.00 | 39 | 1013.1 |
| 20260503230232 | 56 | 71 | 2.6 | 2.6 | 0.00 | 0.00 | 0.00 | 39 | 1013.1 |
| 20260503225724 | 56 | 119 | 0.9 | 1.7 | 0.00 | 0.00 | 0.00 | 39 | 1013.2 |
| 20260503225224 | 56 | 68 | 1.7 | 1.7 | 0.00 | 0.00 | 0.00 | 39 | 1013.2 |
| 20260503224721 | 56 | 82 | 1.7 | 5.2 | 0.00 | 0.00 | 0.00 | 39 | 1013.3 |
| 20260503224219 | 56 | 64 | 1.7 | 4.3 | 0.00 | 0.00 | 0.00 | 39 | 1013.1 |
| 20260503223716 | 56 | 87 | 1.7 | 2.6 | 0.00 | 0.00 | 0.00 | 39 | 1013.2 |
| 20260503223213 | 56 | 61 | 0.0 | 2.6 | 0.00 | 0.00 | 0.00 | 42 | 1013.2 |
| 20260503222710 | 56 | 82 | 1.7 | 2.6 | 0.00 | 0.00 | 0.00 | 42 | 1013.1 |
| 20260503222208 | 56 | 37 | 0.0 | 2.6 | 0.00 | 0.00 | 0.00 | 43 | 1013.1 |
| 20260503221706 | 57 | 19 | 0.0 | 2.6 | 0.00 | 0.00 | 0.00 | 41 | 1013.2 |
| 20260503221203 | 57 | 64 | 1.7 | 2.6 | 0.00 | 0.00 | 0.00 | 38 | 1013.0 |
| 20260503220659 | 57 | 60 | 0.9 | 2.6 | 0.00 | 0.00 | 0.00 | 39 | 1013.1 |
| 20260503220156 | 57 | 118 | 1.7 | 4.3 | 0.00 | 0.00 | 0.00 | 38 | 1013.3 |
| 20260503215653 | 57 | 67 | 3.5 | 4.3 | 0.00 | 0.00 | 0.00 | 39 | 1013.0 |
| 20260503215149 | 57 | 128 | 0.9 | 5.2 | 0.00 | 0.00 | 0.00 | 39 | 1013.1 |
| 20260503214648 | 57 | 57 | 2.6 | 6.1 | 0.00 | 0.00 | 0.00 | 37 | 1013.2 |
| 20260503214143 | 57 | 92 | 1.7 | 5.2 | 0.00 | 0.00 | 0.00 | 39 | 1013.2 |
| 20260503213638 | 57 | 320 | 1.7 | 7.8 | 0.00 | 0.00 | 0.00 | 37 | 1013.0 |
| 20260503213134 | 57 | 20 | 3.5 | 10.4 | 0.00 | 0.00 | 0.00 | 38 | 1013.2 |
| 20260503212631 | 58 | 59 | 3.5 | 5.2 | 0.00 | 0.00 | 0.00 | 38 | 1013.1 |
| 20260503212129 | 58 | 55 | 4.3 | 6.1 | 0.00 | 0.00 | 0.00 | 37 | 1013.1 |
| 20260503211626 | 58 | 113 | 1.7 | 5.2 | 0.00 | 0.00 | 0.00 | 37 | 1013.1 |
| 20260503211121 | 58 | 163 | 2.6 | 7.8 | 0.00 | 0.00 | 0.00 | 35 | 1013.1 |
| 20260503210618 | 58 | 31 | 2.6 | 12.2 | 0.00 | 0.00 | 0.00 | 35 | 1013.1 |
| 20260503210115 | 58 | 1 | 0.9 | 4.3 | 0.00 | 0.00 | 0.00 | 37 | 1013.0 |
| 20260503205611 | 58 | 100 | 4.3 | 13.0 | 0.00 | 0.00 | 0.00 | 33 | 1012.9 |
| 20260503205107 | 58 | 49 | 2.6 | 7.8 | 0.00 | 0.00 | 0.00 | 35 | 1012.9 |
| 20260503204604 | 58 | 39 | 4.3 | 9.6 | 0.00 | 0.00 | 0.00 | 34 | 1012.8 |
| 20260503204101 | 57 | 168 | 3.5 | 7.8 | 0.00 | 0.00 | 0.00 | 35 | 1012.8 |
| 20260503203558 | 58 | 185 | 2.6 | 6.1 | 0.00 | 0.00 | 0.00 | 34 | 1012.9 |
| 20260503203055 | 59 | 131 | 2.6 | 10.4 | 0.00 | 0.00 | 0.00 | 33 | 1012.9 |
| 20260503202553 | 58 | 147 | 2.6 | 4.3 | 0.00 | 0.00 | 0.00 | 36 | 1013.0 |
| 20260503202051 | 58 | 153 | 4.3 | 7.0 | 0.00 | 0.00 | 0.00 | 34 | 1012.8 |